createdAt,value
2022-12-14T00:02:07.161Z,-4.80
2022-12-14T00:06:11.669Z,-4.90
2022-12-14T00:10:14.375Z,-4.70
2022-12-14T00:14:18.507Z,-4.60
2022-12-14T00:18:22.713Z,-4.40
2022-12-14T00:22:25.514Z,-4.40
2022-12-14T00:26:30.903Z,-4.20
2022-12-14T00:30:35.313Z,-4.10
2022-12-14T00:34:38.026Z,-4.40
2022-12-14T00:38:42.290Z,-4.40
2022-12-14T00:42:44.975Z,-4.50
2022-12-14T00:46:48.982Z,-4.60
2022-12-14T00:50:53.711Z,-4.40
2022-12-14T00:54:56.348Z,-4.20
2022-12-14T00:58:59.037Z,-4.10
2022-12-14T01:03:03.326Z,-4.20
2022-12-14T01:07:06.088Z,-4.10
2022-12-14T01:11:13.177Z,-4.30
2022-12-14T01:15:16.107Z,-4.10
2022-12-14T01:19:20.196Z,-4.30
2022-12-14T01:23:22.907Z,-4.30
2022-12-14T01:27:25.934Z,-4.10
2022-12-14T01:37:51.595Z,-4.30
2022-12-14T01:41:54.334Z,-4.10
2022-12-14T01:45:57.332Z,-4.20
2022-12-14T01:50:07.625Z,-4.00
2022-12-14T01:54:14.048Z,-4.10
2022-12-14T01:58:19.617Z,-4.10
2022-12-14T02:02:23.066Z,-4.30
2022-12-14T02:06:30.560Z,-4.20
2022-12-14T02:10:35.144Z,-4.30
2022-12-14T02:14:38.636Z,-4.30
2022-12-14T02:18:41.455Z,-4.40
2022-12-14T02:23:23.352Z,-4.30
2022-12-14T02:27:47.713Z,-4.20
2022-12-14T02:31:59.206Z,-4.00
2022-12-14T02:36:05.953Z,-4.00
2022-12-14T02:40:22.622Z,-4.10
2022-12-14T02:44:40.731Z,-4.00
2022-12-14T02:48:49.471Z,-4.00
2022-12-14T02:52:59.538Z,-4.20
2022-12-14T02:57:07.867Z,-4.10
2022-12-14T03:01:13.816Z,-4.10
2022-12-14T03:05:18.107Z,-4.20
2022-12-14T03:09:21.004Z,-4.10
2022-12-14T03:13:28.233Z,-4.10
2022-12-14T03:17:34.902Z,-4.20
2022-12-14T03:21:44.152Z,-4.30
2022-12-14T03:53:45.915Z,-3.80
2022-12-14T03:58:04.202Z,-3.80
2022-12-14T04:02:16.753Z,-3.80
2022-12-14T04:06:28.500Z,-3.80
2022-12-14T04:10:57.813Z,-3.90
2022-12-14T04:15:23.068Z,-3.90
2022-12-14T04:19:32.561Z,-3.90
2022-12-14T04:23:58.585Z,-4.10
2022-12-14T04:28:06.967Z,-3.90
2022-12-14T04:32:14.839Z,-3.90
2022-12-14T04:36:23.579Z,-3.80
2022-12-14T04:40:31.147Z,-3.90
2022-12-14T04:44:38.454Z,-3.90
2022-12-14T04:48:46.178Z,-3.80
2022-12-14T04:52:54.016Z,-3.60
2022-12-14T04:57:02.202Z,-3.80
2022-12-14T05:01:21.019Z,-4.00
2022-12-14T05:05:30.754Z,-4.10
2022-12-14T05:09:37.967Z,-4.00
2022-12-14T05:13:44.318Z,-4.10
2022-12-14T05:17:53.760Z,-3.80
2022-12-14T05:21:56.720Z,-3.60
2022-12-14T05:25:59.464Z,-3.60
2022-12-14T05:30:02.262Z,-3.60
2022-12-14T05:34:06.398Z,-3.80
2022-12-14T05:38:10.056Z,-3.80
2022-12-14T05:42:12.855Z,-3.90
2022-12-14T05:46:15.728Z,-3.90
2022-12-14T05:50:19.943Z,-3.90
2022-12-14T05:54:22.744Z,-4.10
2022-12-14T05:58:25.778Z,-3.80
2022-12-14T06:02:28.626Z,-3.60
2022-12-14T06:06:34.210Z,-3.60
2022-12-14T06:10:37.005Z,-3.80
2022-12-14T06:14:39.788Z,-3.70
2022-12-14T06:18:44.177Z,-3.80
2022-12-14T06:22:48.324Z,-3.40
2022-12-14T06:26:51.225Z,-3.40
2022-12-14T06:30:54.060Z,-3.30
2022-12-14T06:34:56.919Z,-3.20
2022-12-14T06:39:02.737Z,-3.40
2022-12-14T06:43:05.560Z,-3.60
2022-12-14T06:47:08.371Z,-3.80
2022-12-14T06:51:11.472Z,-3.70
2022-12-14T06:55:15.884Z,-3.50
2022-12-14T06:59:18.669Z,-3.50
2022-12-14T07:03:21.441Z,-3.70
2022-12-14T07:07:24.192Z,-3.60
2022-12-14T07:11:29.389Z,-3.80
2022-12-14T07:15:32.242Z,-3.80
2022-12-14T07:19:35.060Z,-3.70
2022-12-14T07:23:39.682Z,-3.80
2022-12-14T07:27:43.839Z,-3.80
2022-12-14T07:31:49.381Z,-3.70
2022-12-14T07:35:52.477Z,-3.60
2022-12-14T07:39:55.250Z,-3.80
2022-12-14T07:44:01.230Z,-3.60
2022-12-14T07:48:04.142Z,-3.20
2022-12-14T07:52:06.938Z,-3.30
2022-12-14T07:56:12.091Z,-3.30
2022-12-14T08:00:17.674Z,-3.40
2022-12-14T08:04:21.031Z,-3.50
2022-12-14T08:08:23.844Z,-3.20
2022-12-14T08:12:26.593Z,-3.10
2022-12-14T08:16:32.657Z,-3.40
2022-12-14T08:20:35.539Z,-3.10
2022-12-14T08:24:38.267Z,-3.10
2022-12-14T08:28:41.255Z,-3.10
2022-12-14T08:32:45.337Z,-3.10
2022-12-14T08:36:48.067Z,-2.70
2022-12-14T08:40:50.778Z,-2.60
2022-12-14T08:44:53.506Z,-2.50
2022-12-14T08:48:58.888Z,-2.70
2022-12-14T08:53:02.060Z,-2.60
2022-12-14T08:57:05.368Z,-2.40
2022-12-14T09:01:12.164Z,-2.20
2022-12-14T09:05:17.780Z,-2.30
2022-12-14T09:09:20.581Z,-2.50
2022-12-14T09:13:23.388Z,-2.40
2022-12-14T09:17:26.164Z,-2.30
2022-12-14T09:21:31.562Z,-2.30
2022-12-14T09:25:35.035Z,-2.10
2022-12-14T09:29:37.793Z,-2.10
2022-12-14T09:33:40.897Z,-2.10
2022-12-14T09:37:45.021Z,-2.20
2022-12-14T09:42:00.849Z,-2.20
2022-12-14T09:46:20.246Z,-2.20
2022-12-14T09:50:24.363Z,-2.00
2022-12-14T09:54:30.764Z,-1.80
2022-12-14T09:58:34.795Z,-1.90
2022-12-14T10:02:47.390Z,-1.70
2022-12-14T10:06:56.531Z,-1.90
2022-12-14T10:11:07.284Z,-1.70
2022-12-14T10:15:22.041Z,-1.50
2022-12-14T10:19:35.959Z,-1.60
2022-12-14T10:23:42.486Z,-1.50
2022-12-14T10:28:10.301Z,-1.60
2022-12-14T10:32:21.663Z,-1.70
2022-12-14T10:36:29.909Z,-1.60
2022-12-14T10:40:35.236Z,-1.20
2022-12-14T10:44:49.408Z,-0.90
2022-12-14T10:49:00.691Z,-0.60
2022-12-14T10:53:05.768Z,-0.60
2022-12-14T10:57:08.631Z,-0.50
2022-12-14T11:01:15.596Z,-0.30
2022-12-14T11:05:32.495Z,-0.10
2022-12-14T11:09:40.370Z,-0.20
2022-12-14T11:13:50.480Z,-0.50
2022-12-14T11:18:04.496Z,-0.30
2022-12-14T11:22:18.657Z,0.20
2022-12-14T11:26:29.187Z,0.40
2022-12-14T11:30:32.114Z,0.60
2022-12-14T11:34:39.350Z,0.80
2022-12-14T11:38:42.802Z,1.00
2022-12-14T11:42:49.791Z,1.20
2022-12-14T11:46:56.442Z,1.30
2022-12-14T11:51:12.594Z,1.30
2022-12-14T11:55:24.672Z,1.40
2022-12-14T11:59:37.456Z,1.30
2022-12-14T12:03:43.921Z,1.30
2022-12-14T12:07:53.632Z,1.10
2022-12-14T12:11:56.454Z,0.90
2022-12-14T12:16:01.258Z,1.00
2022-12-14T12:20:13.827Z,1.10
2022-12-14T12:24:22.528Z,1.20
2022-12-14T12:28:29.391Z,1.20
2022-12-14T12:32:38.428Z,1.30
2022-12-14T12:37:02.744Z,1.30
2022-12-14T12:41:13.436Z,1.40
2022-12-14T12:45:21.856Z,1.20
2022-12-14T12:49:24.793Z,1.30
2022-12-14T12:53:31.820Z,1.30
2022-12-14T12:57:41.671Z,1.40
2022-12-14T13:01:48.132Z,1.50
2022-12-14T13:05:55.194Z,1.60
2022-12-14T13:10:05.789Z,1.70
2022-12-14T13:14:24.555Z,1.60
2022-12-14T13:18:56.733Z,1.60
2022-12-14T13:22:53.708Z,1.70
2022-12-14T13:27:18.123Z,1.80
2022-12-14T13:31:36.256Z,1.70
2022-12-14T13:36:10.457Z,1.60
2022-12-14T13:40:41.515Z,1.60
2022-12-14T13:44:56.987Z,1.50
2022-12-14T13:49:06.026Z,1.60
2022-12-14T13:53:17.265Z,1.60
2022-12-14T13:57:23.861Z,1.60
2022-12-14T14:02:01.155Z,1.50
2022-12-14T14:06:09.471Z,1.50
2022-12-14T14:10:30.254Z,1.50
2022-12-14T14:14:44.628Z,1.60
2022-12-14T14:18:51.688Z,1.30
2022-12-14T14:23:27.727Z,1.50
2022-12-14T14:27:37.795Z,1.80
2022-12-14T14:31:48.943Z,1.60
2022-12-14T14:35:51.810Z,1.70
2022-12-14T14:40:18.735Z,1.60
2022-12-14T14:44:37.961Z,1.80
2022-12-14T14:48:43.772Z,1.90
2022-12-14T14:52:58.665Z,1.90
2022-12-14T14:57:02.438Z,1.90
2022-12-14T15:01:25.006Z,1.80
2022-12-14T15:05:44.768Z,1.90
2022-12-14T15:09:49.174Z,2.00
2022-12-14T15:13:55.406Z,2.00
2022-12-14T15:18:12.788Z,2.10
2022-12-14T15:22:19.425Z,2.20
2022-12-14T15:26:25.638Z,2.30
2022-12-14T15:30:29.151Z,2.40
2022-12-14T15:34:32.101Z,2.50
2022-12-14T15:38:38.148Z,2.60
2022-12-14T15:42:47.308Z,2.60
2022-12-14T15:46:55.089Z,2.60
2022-12-14T15:51:03.002Z,2.70
2022-12-14T15:55:20.946Z,2.70
2022-12-14T15:59:26.196Z,2.80
2022-12-14T16:03:33.177Z,2.80
2022-12-14T16:07:39.462Z,2.90
2022-12-14T16:11:46.601Z,2.90
2022-12-14T16:15:49.897Z,3.00
2022-12-14T16:19:59.994Z,3.00
2022-12-14T16:24:22.077Z,3.00
2022-12-14T16:28:29.805Z,3.00
2022-12-14T16:32:32.801Z,3.00
2022-12-14T16:36:36.672Z,3.00
2022-12-14T16:40:43.194Z,3.00
2022-12-14T16:44:48.665Z,3.00
2022-12-14T16:49:19.618Z,3.10
2022-12-14T16:54:12.260Z,3.10
2022-12-14T16:58:18.793Z,3.10
2022-12-14T17:02:30.243Z,3.20
2022-12-14T17:06:47.382Z,3.20
2022-12-14T17:10:50.809Z,3.20
2022-12-14T17:21:30.741Z,3.20
2022-12-14T17:25:35.516Z,3.20
2022-12-14T17:29:38.302Z,3.20
2022-12-14T17:33:42.549Z,3.30
2022-12-14T17:38:20.872Z,3.20
2022-12-14T17:47:40.605Z,3.30
2022-12-14T17:51:46.972Z,3.50
2022-12-14T18:13:32.350Z,3.50
2022-12-14T18:17:35.431Z,3.50
2022-12-14T18:21:38.109Z,3.50
2022-12-14T18:25:53.698Z,3.60
2022-12-14T18:29:57.810Z,3.60
2022-12-14T18:34:00.502Z,3.60
2022-12-14T18:38:19.527Z,3.60
2022-12-14T18:42:22.891Z,3.60
2022-12-14T18:46:30.685Z,3.50
2022-12-14T18:50:36.192Z,3.50
2022-12-14T18:54:42.336Z,3.50
2022-12-14T18:58:46.394Z,3.40
2022-12-14T19:02:51.538Z,3.40
2022-12-14T19:06:54.858Z,3.30
2022-12-14T19:10:59.373Z,3.20
2022-12-14T19:15:02.849Z,3.20
2022-12-14T19:19:07.235Z,3.10
2022-12-14T19:23:15.998Z,3.20
2022-12-14T19:27:35.706Z,3.20
2022-12-14T19:31:42.358Z,3.20
2022-12-14T19:35:48.609Z,3.30
2022-12-14T19:39:51.627Z,3.30
2022-12-14T19:43:57.229Z,3.30
2022-12-14T19:48:00.549Z,3.30
2022-12-14T19:52:59.145Z,3.30
2022-12-14T19:57:03.883Z,3.20
2022-12-14T20:01:10.582Z,3.20
2022-12-14T20:05:14.764Z,3.20
2022-12-14T20:09:18.991Z,3.20
2022-12-14T20:13:25.167Z,3.20
2022-12-14T20:17:28.093Z,3.20
2022-12-14T20:21:31.398Z,3.10
2022-12-14T20:25:34.331Z,3.20
2022-12-14T20:29:39.811Z,3.30
2022-12-14T20:33:43.418Z,3.30
2022-12-14T20:37:46.626Z,3.30
2022-12-14T20:41:49.942Z,3.30
2022-12-14T20:45:54.498Z,3.30
2022-12-14T20:49:57.345Z,3.30
2022-12-14T20:54:00.331Z,3.30
2022-12-14T20:58:03.256Z,3.30
2022-12-14T21:02:08.047Z,3.30
2022-12-14T21:06:11.702Z,3.30
2022-12-14T21:10:14.524Z,3.30
2022-12-14T21:14:18.151Z,3.30
2022-12-14T21:18:24.599Z,3.30
2022-12-14T21:22:31.414Z,3.30
2022-12-14T21:26:35.346Z,3.40
2022-12-14T21:36:26.623Z,3.50
2022-12-14T21:41:12.163Z,3.50
2022-12-14T21:45:15.015Z,3.50
2022-12-14T21:49:18.169Z,3.60
2022-12-14T21:53:22.351Z,3.60
2022-12-14T21:57:49.370Z,3.50
2022-12-14T22:02:25.581Z,3.50
2022-12-14T22:12:17.566Z,3.40
2022-12-14T22:16:20.463Z,3.40
2022-12-14T22:20:23.192Z,3.40
2022-12-14T22:24:27.775Z,3.60
2022-12-14T22:28:31.828Z,3.50
2022-12-14T22:32:34.563Z,3.40
2022-12-14T22:36:37.258Z,3.40
2022-12-14T22:40:39.973Z,3.40
2022-12-14T22:44:44.147Z,3.20
2022-12-14T22:48:46.894Z,3.30
2022-12-14T22:52:49.906Z,3.40
2022-12-14T22:56:56.666Z,3.40
2022-12-14T23:01:00.932Z,3.30
2022-12-14T23:05:03.862Z,3.30
2022-12-14T23:09:25.075Z,3.30
2022-12-14T23:13:45.324Z,3.40
2022-12-14T23:18:06.942Z,3.30
2022-12-14T23:22:27.046Z,3.40
2022-12-14T23:26:47.377Z,3.30
2022-12-14T23:31:07.914Z,3.10
2022-12-14T23:35:29.294Z,3.10
2022-12-14T23:39:49.693Z,3.20
2022-12-14T23:44:10.024Z,3.10
2022-12-14T23:48:30.464Z,3.10
2022-12-14T23:52:52.066Z,3.00
